sensor_id;sensor_type;location;lat;lon;timestamp;P1;durP1;ratioP1;P2;durP2;ratioP2
80193;SDS011;69515;42.072;21.504;2023-08-06T00:00:38;0.17;;;0.10;;
80193;SDS011;69515;42.072;21.504;2023-08-06T00:03:04;0.00;;;0.00;;
80193;SDS011;69515;42.072;21.504;2023-08-06T00:05:31;0.10;;;0.10;;
80193;SDS011;69515;42.072;21.504;2023-08-06T00:07:57;0.00;;;0.00;;
80193;SDS011;69515;42.072;21.504;2023-08-06T00:10:23;0.10;;;0.10;;
80193;SDS011;69515;42.072;21.504;2023-08-06T00:12:49;0.10;;;0.10;;
80193;SDS011;69515;42.072;21.504;2023-08-06T00:15:15;0.10;;;0.10;;
80193;SDS011;69515;42.072;21.504;2023-08-06T00:17:42;0.10;;;0.10;;
80193;SDS011;69515;42.072;21.504;2023-08-06T00:20:08;0.10;;;0.10;;
80193;SDS011;69515;42.072;21.504;2023-08-06T00:22:35;0.15;;;0.15;;
80193;SDS011;69515;42.072;21.504;2023-08-06T00:25:01;0.00;;;0.00;;
80193;SDS011;69515;42.072;21.504;2023-08-06T00:27:27;0.15;;;0.15;;
80193;SDS011;69515;42.072;21.504;2023-08-06T00:29:53;0.10;;;0.10;;
80193;SDS011;69515;42.072;21.504;2023-08-06T00:32:20;0.10;;;0.10;;
80193;SDS011;69515;42.072;21.504;2023-08-06T00:34:46;0.03;;;0.03;;
80193;SDS011;69515;42.072;21.504;2023-08-06T00:37:15;0.10;;;0.10;;
80193;SDS011;69515;42.072;21.504;2023-08-06T00:39:41;0.10;;;0.10;;
80193;SDS011;69515;42.072;21.504;2023-08-06T00:42:08;0.10;;;0.10;;
80193;SDS011;69515;42.072;21.504;2023-08-06T00:44:35;0.10;;;0.10;;
80193;SDS011;69515;42.072;21.504;2023-08-06T00:47:01;0.10;;;0.10;;
80193;SDS011;69515;42.072;21.504;2023-08-06T00:49:27;0.10;;;0.10;;
80193;SDS011;69515;42.072;21.504;2023-08-06T00:51:53;0.00;;;0.00;;
80193;SDS011;69515;42.072;21.504;2023-08-06T00:54:20;0.05;;;0.05;;
80193;SDS011;69515;42.072;21.504;2023-08-06T00:56:46;0.10;;;0.10;;
80193;SDS011;69515;42.072;21.504;2023-08-06T00:59:13;0.05;;;0.05;;
80193;SDS011;69515;42.072;21.504;2023-08-06T01:01:40;0.03;;;0.00;;
80193;SDS011;69515;42.072;21.504;2023-08-06T01:04:06;0.00;;;0.00;;
80193;SDS011;69515;42.072;21.504;2023-08-06T01:06:44;0.10;;;0.10;;
80193;SDS011;69515;42.072;21.504;2023-08-06T01:09:21;0.10;;;0.10;;
80193;SDS011;69515;42.072;21.504;2023-08-06T01:11:59;0.00;;;0.00;;
80193;SDS011;69515;42.072;21.504;2023-08-06T01:16:55;0.10;;;0.10;;
80193;SDS011;69515;42.072;21.504;2023-08-06T01:19:23;0.10;;;0.10;;
80193;SDS011;69515;42.072;21.504;2023-08-06T01:21:49;0.00;;;0.00;;
80193;SDS011;69515;42.072;21.504;2023-08-06T01:24:15;0.10;;;0.10;;
80193;SDS011;69515;42.072;21.504;2023-08-06T01:26:42;0.10;;;0.10;;
80193;SDS011;69515;42.072;21.504;2023-08-06T01:29:11;0.00;;;0.00;;
80193;SDS011;69515;42.072;21.504;2023-08-06T01:31:39;0.10;;;0.10;;
80193;SDS011;69515;42.072;21.504;2023-08-06T01:34:09;0.10;;;0.10;;
80193;SDS011;69515;42.072;21.504;2023-08-06T01:36:36;0.00;;;0.00;;
80193;SDS011;69515;42.072;21.504;2023-08-06T01:39:04;0.10;;;0.10;;
80193;SDS011;69515;42.072;21.504;2023-08-06T01:41:30;0.10;;;0.10;;
80193;SDS011;69515;42.072;21.504;2023-08-06T01:43:56;0.00;;;0.00;;
80193;SDS011;69515;42.072;21.504;2023-08-06T01:46:23;0.10;;;0.10;;
80193;SDS011;69515;42.072;21.504;2023-08-06T01:48:49;0.10;;;0.10;;
80193;SDS011;69515;42.072;21.504;2023-08-06T01:51:15;0.10;;;0.10;;
80193;SDS011;69515;42.072;21.504;2023-08-06T01:53:41;0.10;;;0.10;;
80193;SDS011;69515;42.072;21.504;2023-08-06T01:56:07;0.00;;;0.00;;
80193;SDS011;69515;42.072;21.504;2023-08-06T01:58:34;0.10;;;0.10;;
80193;SDS011;69515;42.072;21.504;2023-08-06T02:01:01;0.00;;;0.00;;
80193;SDS011;69515;42.072;21.504;2023-08-06T02:03:27;0.10;;;0.10;;
80193;SDS011;69515;42.072;21.504;2023-08-06T02:05:53;0.10;;;0.10;;
80193;SDS011;69515;42.072;21.504;2023-08-06T02:08:19;0.10;;;0.10;;
80193;SDS011;69515;42.072;21.504;2023-08-06T02:10:46;0.13;;;0.13;;
80193;SDS011;69515;42.072;21.504;2023-08-06T02:13:12;0.10;;;0.10;;
80193;SDS011;69515;42.072;21.504;2023-08-06T02:15:42;0.20;;;0.20;;
80193;SDS011;69515;42.072;21.504;2023-08-06T02:18:09;0.10;;;0.10;;
80193;SDS011;69515;42.072;21.504;2023-08-06T02:20:35;0.10;;;0.10;;
80193;SDS011;69515;42.072;21.504;2023-08-06T02:23:01;0.08;;;0.08;;
80193;SDS011;69515;42.072;21.504;2023-08-06T02:25:27;0.00;;;0.00;;
80193;SDS011;69515;42.072;21.504;2023-08-06T02:27:53;0.10;;;0.10;;
80193;SDS011;69515;42.072;21.504;2023-08-06T02:30:20;0.05;;;0.05;;
80193;SDS011;69515;42.072;21.504;2023-08-06T02:32:46;0.00;;;0.00;;
80193;SDS011;69515;42.072;21.504;2023-08-06T02:35:12;0.10;;;0.10;;
80193;SDS011;69515;42.072;21.504;2023-08-06T02:37:38;0.00;;;0.00;;
80193;SDS011;69515;42.072;21.504;2023-08-06T02:40:04;0.10;;;0.10;;
80193;SDS011;69515;42.072;21.504;2023-08-06T02:42:31;0.10;;;0.10;;
80193;SDS011;69515;42.072;21.504;2023-08-06T02:44:57;0.10;;;0.10;;
80193;SDS011;69515;42.072;21.504;2023-08-06T02:47:23;0.10;;;0.10;;
80193;SDS011;69515;42.072;21.504;2023-08-06T02:49:49;0.00;;;0.00;;
80193;SDS011;69515;42.072;21.504;2023-08-06T02:52:16;0.10;;;0.10;;
80193;SDS011;69515;42.072;21.504;2023-08-06T02:54:42;0.10;;;0.10;;
80193;SDS011;69515;42.072;21.504;2023-08-06T02:57:08;0.10;;;0.10;;
80193;SDS011;69515;42.072;21.504;2023-08-06T02:59:35;0.13;;;0.10;;
80193;SDS011;69515;42.072;21.504;2023-08-06T03:02:01;0.10;;;0.10;;
80193;SDS011;69515;42.072;21.504;2023-08-06T03:04:27;0.10;;;0.10;;
80193;SDS011;69515;42.072;21.504;2023-08-06T03:06:53;0.00;;;0.00;;
80193;SDS011;69515;42.072;21.504;2023-08-06T03:09:19;0.08;;;0.08;;
80193;SDS011;69515;42.072;21.504;2023-08-06T03:11:45;0.17;;;0.10;;
80193;SDS011;69515;42.072;21.504;2023-08-06T03:14:12;0.10;;;0.10;;
80193;SDS011;69515;42.072;21.504;2023-08-06T03:16:38;0.10;;;0.10;;
80193;SDS011;69515;42.072;21.504;2023-08-06T03:19:04;0.10;;;0.10;;
80193;SDS011;69515;42.072;21.504;2023-08-06T03:21:30;0.13;;;0.10;;
80193;SDS011;69515;42.072;21.504;2023-08-06T03:23:56;0.10;;;0.10;;
80193;SDS011;69515;42.072;21.504;2023-08-06T03:26:22;0.20;;;0.17;;
80193;SDS011;69515;42.072;21.504;2023-08-06T03:28:49;0.10;;;0.10;;
80193;SDS011;69515;42.072;21.504;2023-08-06T03:31:15;0.10;;;0.10;;
80193;SDS011;69515;42.072;21.504;2023-08-06T03:33:41;0.00;;;0.00;;
80193;SDS011;69515;42.072;21.504;2023-08-06T03:36:07;0.10;;;0.10;;
80193;SDS011;69515;42.072;21.504;2023-08-06T03:38:33;0.10;;;0.10;;
80193;SDS011;69515;42.072;21.504;2023-08-06T03:41:00;0.10;;;0.10;;
80193;SDS011;69515;42.072;21.504;2023-08-06T03:43:26;0.10;;;0.10;;
80193;SDS011;69515;42.072;21.504;2023-08-06T03:45:52;0.10;;;0.10;;
80193;SDS011;69515;42.072;21.504;2023-08-06T03:48:18;0.00;;;0.00;;
80193;SDS011;69515;42.072;21.504;2023-08-06T03:50:44;0.10;;;0.10;;
80193;SDS011;69515;42.072;21.504;2023-08-06T03:53:11;0.00;;;0.00;;
80193;SDS011;69515;42.072;21.504;2023-08-06T03:55:37;0.10;;;0.10;;
80193;SDS011;69515;42.072;21.504;2023-08-06T03:58:03;0.00;;;0.00;;
80193;SDS011;69515;42.072;21.504;2023-08-06T04:00:29;0.10;;;0.10;;
80193;SDS011;69515;42.072;21.504;2023-08-06T04:02:55;0.10;;;0.10;;
80193;SDS011;69515;42.072;21.504;2023-08-06T04:05:21;0.10;;;0.10;;
80193;SDS011;69515;42.072;21.504;2023-08-06T04:07:47;0.00;;;0.00;;
80193;SDS011;69515;42.072;21.504;2023-08-06T04:10:14;0.10;;;0.10;;
80193;SDS011;69515;42.072;21.504;2023-08-06T04:12:40;0.10;;;0.10;;
80193;SDS011;69515;42.072;21.504;2023-08-06T04:15:06;0.10;;;0.10;;
80193;SDS011;69515;42.072;21.504;2023-08-06T04:17:33;0.00;;;0.00;;
80193;SDS011;69515;42.072;21.504;2023-08-06T04:19:59;0.00;;;0.00;;
80193;SDS011;69515;42.072;21.504;2023-08-06T04:22:25;0.10;;;0.10;;
80193;SDS011;69515;42.072;21.504;2023-08-06T04:24:51;2.45;;;1.48;;
80193;SDS011;69515;42.072;21.504;2023-08-06T04:27:18;4.05;;;2.83;;
80193;SDS011;69515;42.072;21.504;2023-08-06T04:29:45;4.25;;;3.17;;
80193;SDS011;69515;42.072;21.504;2023-08-06T04:32:11;4.93;;;4.32;;
80193;SDS011;69515;42.072;21.504;2023-08-06T04:34:37;4.07;;;2.78;;
80193;SDS011;69515;42.072;21.504;2023-08-06T04:37:04;4.28;;;3.35;;
80193;SDS011;69515;42.072;21.504;2023-08-06T04:39:30;2.72;;;1.77;;
80193;SDS011;69515;42.072;21.504;2023-08-06T04:41:56;3.53;;;2.30;;
80193;SDS011;69515;42.072;21.504;2023-08-06T04:44:23;1.33;;;1.02;;
80193;SDS011;69515;42.072;21.504;2023-08-06T04:46:49;1.95;;;1.13;;
80193;SDS011;69515;42.072;21.504;2023-08-06T04:49:15;0.00;;;0.00;;
80193;SDS011;69515;42.072;21.504;2023-08-06T04:51:41;0.10;;;0.10;;
80193;SDS011;69515;42.072;21.504;2023-08-06T04:54:07;0.10;;;0.10;;
80193;SDS011;69515;42.072;21.504;2023-08-06T04:56:34;0.10;;;0.10;;
80193;SDS011;69515;42.072;21.504;2023-08-06T04:59:00;0.10;;;0.10;;
80193;SDS011;69515;42.072;21.504;2023-08-06T05:01:26;0.20;;;0.15;;
80193;SDS011;69515;42.072;21.504;2023-08-06T05:03:53;0.00;;;0.00;;
80193;SDS011;69515;42.072;21.504;2023-08-06T05:06:19;0.10;;;0.10;;
80193;SDS011;69515;42.072;21.504;2023-08-06T05:08:45;0.00;;;0.00;;
80193;SDS011;69515;42.072;21.504;2023-08-06T05:11:12;0.10;;;0.10;;
80193;SDS011;69515;42.072;21.504;2023-08-06T05:13:38;0.00;;;0.00;;
80193;SDS011;69515;42.072;21.504;2023-08-06T05:16:04;0.10;;;0.10;;
80193;SDS011;69515;42.072;21.504;2023-08-06T05:18:30;0.10;;;0.10;;
80193;SDS011;69515;42.072;21.504;2023-08-06T05:20:56;0.10;;;0.10;;
80193;SDS011;69515;42.072;21.504;2023-08-06T05:23:23;0.10;;;0.10;;
80193;SDS011;69515;42.072;21.504;2023-08-06T05:25:49;0.10;;;0.10;;
80193;SDS011;69515;42.072;21.504;2023-08-06T05:28:15;0.10;;;0.10;;
80193;SDS011;69515;42.072;21.504;2023-08-06T05:30:41;0.10;;;0.10;;
80193;SDS011;69515;42.072;21.504;2023-08-06T05:33:07;0.00;;;0.00;;
80193;SDS011;69515;42.072;21.504;2023-08-06T05:35:33;0.00;;;0.00;;
80193;SDS011;69515;42.072;21.504;2023-08-06T05:38:00;0.10;;;0.10;;
80193;SDS011;69515;42.072;21.504;2023-08-06T05:40:26;0.10;;;0.10;;
80193;SDS011;69515;42.072;21.504;2023-08-06T05:42:53;0.10;;;0.10;;
80193;SDS011;69515;42.072;21.504;2023-08-06T05:45:20;0.08;;;0.08;;
80193;SDS011;69515;42.072;21.504;2023-08-06T05:47:49;0.00;;;0.00;;
80193;SDS011;69515;42.072;21.504;2023-08-06T05:50:15;0.10;;;0.10;;
80193;SDS011;69515;42.072;21.504;2023-08-06T05:52:41;0.10;;;0.10;;
80193;SDS011;69515;42.072;21.504;2023-08-06T05:55:07;0.08;;;0.03;;
80193;SDS011;69515;42.072;21.504;2023-08-06T05:57:34;0.10;;;0.10;;
80193;SDS011;69515;42.072;21.504;2023-08-06T06:00:00;0.00;;;0.00;;
80193;SDS011;69515;42.072;21.504;2023-08-06T06:02:26;0.10;;;0.10;;
80193;SDS011;69515;42.072;21.504;2023-08-06T06:04:52;0.10;;;0.10;;
80193;SDS011;69515;42.072;21.504;2023-08-06T06:07:19;0.10;;;0.10;;
80193;SDS011;69515;42.072;21.504;2023-08-06T06:09:45;0.08;;;0.08;;
80193;SDS011;69515;42.072;21.504;2023-08-06T06:12:11;0.05;;;0.05;;
80193;SDS011;69515;42.072;21.504;2023-08-06T06:14:37;0.10;;;0.10;;
80193;SDS011;69515;42.072;21.504;2023-08-06T06:17:03;0.05;;;0.05;;
80193;SDS011;69515;42.072;21.504;2023-08-06T06:19:29;0.00;;;0.00;;
80193;SDS011;69515;42.072;21.504;2023-08-06T06:21:56;0.03;;;0.03;;
80193;SDS011;69515;42.072;21.504;2023-08-06T06:24:22;0.10;;;0.10;;
80193;SDS011;69515;42.072;21.504;2023-08-06T06:26:49;0.10;;;0.10;;
80193;SDS011;69515;42.072;21.504;2023-08-06T06:29:15;0.10;;;0.10;;
80193;SDS011;69515;42.072;21.504;2023-08-06T06:31:41;0.10;;;0.10;;
80193;SDS011;69515;42.072;21.504;2023-08-06T06:34:07;0.00;;;0.00;;
80193;SDS011;69515;42.072;21.504;2023-08-06T06:36:33;0.10;;;0.10;;
80193;SDS011;69515;42.072;21.504;2023-08-06T06:38:59;0.10;;;0.10;;
80193;SDS011;69515;42.072;21.504;2023-08-06T06:41:26;0.10;;;0.10;;
80193;SDS011;69515;42.072;21.504;2023-08-06T06:43:54;0.03;;;0.03;;
80193;SDS011;69515;42.072;21.504;2023-08-06T06:46:21;0.08;;;0.03;;
80193;SDS011;69515;42.072;21.504;2023-08-06T06:48:47;0.20;;;0.20;;
80193;SDS011;69515;42.072;21.504;2023-08-06T06:51:13;0.10;;;0.10;;
80193;SDS011;69515;42.072;21.504;2023-08-06T06:53:39;0.00;;;0.00;;
80193;SDS011;69515;42.072;21.504;2023-08-06T06:56:05;0.03;;;0.03;;
80193;SDS011;69515;42.072;21.504;2023-08-06T06:58:32;0.10;;;0.10;;
80193;SDS011;69515;42.072;21.504;2023-08-06T07:00:58;0.10;;;0.10;;
80193;SDS011;69515;42.072;21.504;2023-08-06T07:03:24;0.00;;;0.00;;
80193;SDS011;69515;42.072;21.504;2023-08-06T07:05:51;0.05;;;0.05;;
80193;SDS011;69515;42.072;21.504;2023-08-06T07:08:17;0.00;;;0.00;;
80193;SDS011;69515;42.072;21.504;2023-08-06T07:10:43;0.10;;;0.10;;
80193;SDS011;69515;42.072;21.504;2023-08-06T07:13:09;0.00;;;0.00;;
80193;SDS011;69515;42.072;21.504;2023-08-06T07:15:36;0.00;;;0.00;;
80193;SDS011;69515;42.072;21.504;2023-08-06T07:18:02;0.00;;;0.00;;
80193;SDS011;69515;42.072;21.504;2023-08-06T07:20:28;0.00;;;0.00;;
80193;SDS011;69515;42.072;21.504;2023-08-06T07:22:57;0.00;;;0.00;;
80193;SDS011;69515;42.072;21.504;2023-08-06T07:25:24;0.00;;;0.00;;
80193;SDS011;69515;42.072;21.504;2023-08-06T07:27:50;0.10;;;0.10;;
80193;SDS011;69515;42.072;21.504;2023-08-06T07:30:16;0.00;;;0.00;;
80193;SDS011;69515;42.072;21.504;2023-08-06T07:32:42;0.00;;;0.00;;
80193;SDS011;69515;42.072;21.504;2023-08-06T07:35:08;0.00;;;0.00;;
80193;SDS011;69515;42.072;21.504;2023-08-06T07:37:38;0.05;;;0.05;;
80193;SDS011;69515;42.072;21.504;2023-08-06T07:40:04;0.00;;;0.00;;
80193;SDS011;69515;42.072;21.504;2023-08-06T07:42:31;0.00;;;0.00;;
80193;SDS011;69515;42.072;21.504;2023-08-06T07:44:57;0.00;;;0.00;;
80193;SDS011;69515;42.072;21.504;2023-08-06T07:47:24;0.08;;;0.08;;
80193;SDS011;69515;42.072;21.504;2023-08-06T07:49:50;0.00;;;0.00;;
80193;SDS011;69515;42.072;21.504;2023-08-06T07:52:16;0.10;;;0.10;;
80193;SDS011;69515;42.072;21.504;2023-08-06T07:54:42;0.00;;;0.00;;
80193;SDS011;69515;42.072;21.504;2023-08-06T07:57:09;0.10;;;0.10;;
80193;SDS011;69515;42.072;21.504;2023-08-06T07:59:35;0.10;;;0.10;;
80193;SDS011;69515;42.072;21.504;2023-08-06T08:02:01;0.10;;;0.10;;
80193;SDS011;69515;42.072;21.504;2023-08-06T08:04:27;0.00;;;0.00;;
80193;SDS011;69515;42.072;21.504;2023-08-06T08:06:53;0.10;;;0.10;;
80193;SDS011;69515;42.072;21.504;2023-08-06T08:09:20;0.00;;;0.00;;
80193;SDS011;69515;42.072;21.504;2023-08-06T08:11:46;0.05;;;0.05;;
80193;SDS011;69515;42.072;21.504;2023-08-06T08:14:12;0.00;;;0.00;;
80193;SDS011;69515;42.072;21.504;2023-08-06T08:16:38;0.00;;;0.00;;
80193;SDS011;69515;42.072;21.504;2023-08-06T08:19:05;0.00;;;0.00;;
80193;SDS011;69515;42.072;21.504;2023-08-06T08:21:31;0.10;;;0.10;;
80193;SDS011;69515;42.072;21.504;2023-08-06T08:23:59;0.08;;;0.08;;
80193;SDS011;69515;42.072;21.504;2023-08-06T08:26:25;0.10;;;0.10;;
80193;SDS011;69515;42.072;21.504;2023-08-06T08:28:53;0.10;;;0.10;;
80193;SDS011;69515;42.072;21.504;2023-08-06T08:31:19;0.10;;;0.10;;
80193;SDS011;69515;42.072;21.504;2023-08-06T08:33:45;0.10;;;0.10;;
80193;SDS011;69515;42.072;21.504;2023-08-06T08:36:11;0.00;;;0.00;;
80193;SDS011;69515;42.072;21.504;2023-08-06T08:38:37;0.10;;;0.10;;
80193;SDS011;69515;42.072;21.504;2023-08-06T08:41:04;0.03;;;0.03;;
80193;SDS011;69515;42.072;21.504;2023-08-06T08:43:30;0.00;;;0.00;;
80193;SDS011;69515;42.072;21.504;2023-08-06T08:45:56;0.08;;;0.08;;
80193;SDS011;69515;42.072;21.504;2023-08-06T08:48:26;0.10;;;0.10;;
80193;SDS011;69515;42.072;21.504;2023-08-06T08:50:52;0.10;;;0.10;;
80193;SDS011;69515;42.072;21.504;2023-08-06T08:53:18;0.10;;;0.10;;
80193;SDS011;69515;42.072;21.504;2023-08-06T08:55:48;0.10;;;0.10;;
80193;SDS011;69515;42.072;21.504;2023-08-06T08:58:14;0.05;;;0.05;;
80193;SDS011;69515;42.072;21.504;2023-08-06T09:00:47;0.10;;;0.10;;
80193;SDS011;69515;42.072;21.504;2023-08-06T09:03:13;0.00;;;0.00;;
80193;SDS011;69515;42.072;21.504;2023-08-06T09:05:45;0.10;;;0.10;;
80193;SDS011;69515;42.072;21.504;2023-08-06T09:08:11;0.10;;;0.10;;
80193;SDS011;69515;42.072;21.504;2023-08-06T09:10:39;0.10;;;0.10;;
80193;SDS011;69515;42.072;21.504;2023-08-06T09:13:06;0.00;;;0.00;;
80193;SDS011;69515;42.072;21.504;2023-08-06T09:15:33;0.00;;;0.00;;
80193;SDS011;69515;42.072;21.504;2023-08-06T09:18:00;0.00;;;0.00;;
80193;SDS011;69515;42.072;21.504;2023-08-06T09:20:26;0.05;;;0.05;;
80193;SDS011;69515;42.072;21.504;2023-08-06T09:22:53;0.10;;;0.10;;
80193;SDS011;69515;42.072;21.504;2023-08-06T09:25:22;0.10;;;0.10;;
80193;SDS011;69515;42.072;21.504;2023-08-06T09:27:50;0.10;;;0.10;;
80193;SDS011;69515;42.072;21.504;2023-08-06T09:33:14;0.00;;;0.00;;
80193;SDS011;69515;42.072;21.504;2023-08-06T09:35:45;0.17;;;0.17;;
80193;SDS011;69515;42.072;21.504;2023-08-06T09:38:11;0.00;;;0.00;;
80193;SDS011;69515;42.072;21.504;2023-08-06T09:40:37;0.00;;;0.00;;
80193;SDS011;69515;42.072;21.504;2023-08-06T09:43:04;0.00;;;0.00;;
80193;SDS011;69515;42.072;21.504;2023-08-06T09:45:31;0.05;;;0.05;;
80193;SDS011;69515;42.072;21.504;2023-08-06T09:47:58;0.10;;;0.10;;
80193;SDS011;69515;42.072;21.504;2023-08-06T09:50:27;0.03;;;0.03;;
80193;SDS011;69515;42.072;21.504;2023-08-06T09:52:54;0.08;;;0.08;;
80193;SDS011;69515;42.072;21.504;2023-08-06T09:55:20;0.00;;;0.00;;
80193;SDS011;69515;42.072;21.504;2023-08-06T09:57:48;0.00;;;0.00;;
80193;SDS011;69515;42.072;21.504;2023-08-06T10:00:15;0.00;;;0.00;;
80193;SDS011;69515;42.072;21.504;2023-08-06T10:02:41;0.00;;;0.00;;
80193;SDS011;69515;42.072;21.504;2023-08-06T10:05:08;0.03;;;0.00;;
80193;SDS011;69515;42.072;21.504;2023-08-06T10:07:35;0.17;;;0.10;;
80193;SDS011;69515;42.072;21.504;2023-08-06T10:10:01;0.08;;;0.08;;
80193;SDS011;69515;42.072;21.504;2023-08-06T10:12:34;0.10;;;0.10;;
80193;SDS011;69515;42.072;21.504;2023-08-06T10:15:02;0.00;;;0.00;;
80193;SDS011;69515;42.072;21.504;2023-08-06T10:17:28;0.10;;;0.10;;
80193;SDS011;69515;42.072;21.504;2023-08-06T10:19:57;0.08;;;0.08;;
80193;SDS011;69515;42.072;21.504;2023-08-06T10:22:24;0.10;;;0.10;;
80193;SDS011;69515;42.072;21.504;2023-08-06T10:27:22;0.00;;;0.00;;
80193;SDS011;69515;42.072;21.504;2023-08-06T10:29:49;0.00;;;0.00;;
80193;SDS011;69515;42.072;21.504;2023-08-06T10:32:15;0.10;;;0.10;;
80193;SDS011;69515;42.072;21.504;2023-08-06T10:34:58;0.00;;;0.00;;
80193;SDS011;69515;42.072;21.504;2023-08-06T10:37:35;0.00;;;0.00;;
80193;SDS011;69515;42.072;21.504;2023-08-06T10:40:02;0.00;;;0.00;;
80193;SDS011;69515;42.072;21.504;2023-08-06T10:42:29;0.03;;;0.03;;
80193;SDS011;69515;42.072;21.504;2023-08-06T10:45:11;0.00;;;0.00;;
80193;SDS011;69515;42.072;21.504;2023-08-06T10:47:38;0.05;;;0.05;;
80193;SDS011;69515;42.072;21.504;2023-08-06T10:52:35;0.10;;;0.00;;
80193;SDS011;69515;42.072;21.504;2023-08-06T10:55:01;0.00;;;0.00;;
80193;SDS011;69515;42.072;21.504;2023-08-06T10:57:27;0.00;;;0.00;;
80193;SDS011;69515;42.072;21.504;2023-08-06T10:59:53;0.00;;;0.00;;
80193;SDS011;69515;42.072;21.504;2023-08-06T11:02:20;0.00;;;0.00;;
80193;SDS011;69515;42.072;21.504;2023-08-06T11:04:46;0.10;;;0.10;;
80193;SDS011;69515;42.072;21.504;2023-08-06T11:07:13;0.00;;;0.00;;
80193;SDS011;69515;42.072;21.504;2023-08-06T11:09:39;0.05;;;0.05;;
80193;SDS011;69515;42.072;21.504;2023-08-06T11:12:09;0.00;;;0.00;;
80193;SDS011;69515;42.072;21.504;2023-08-06T11:14:35;0.03;;;0.03;;
80193;SDS011;69515;42.072;21.504;2023-08-06T11:17:03;0.10;;;0.10;;
80193;SDS011;69515;42.072;21.504;2023-08-06T11:19:31;0.00;;;0.00;;
80193;SDS011;69515;42.072;21.504;2023-08-06T11:21:57;0.00;;;0.00;;
80193;SDS011;69515;42.072;21.504;2023-08-06T11:24:24;0.00;;;0.00;;
80193;SDS011;69515;42.072;21.504;2023-08-06T11:26:50;0.13;;;0.00;;
80193;SDS011;69515;42.072;21.504;2023-08-06T11:29:17;0.08;;;0.08;;
80193;SDS011;69515;42.072;21.504;2023-08-06T11:31:44;0.03;;;0.03;;
80193;SDS011;69515;42.072;21.504;2023-08-06T11:34:10;0.00;;;0.00;;
80193;SDS011;69515;42.072;21.504;2023-08-06T11:36:40;0.00;;;0.00;;
80193;SDS011;69515;42.072;21.504;2023-08-06T11:39:06;0.00;;;0.00;;
80193;SDS011;69515;42.072;21.504;2023-08-06T11:41:33;0.00;;;0.00;;
80193;SDS011;69515;42.072;21.504;2023-08-06T11:43:59;0.00;;;0.00;;
80193;SDS011;69515;42.072;21.504;2023-08-06T11:46:26;0.00;;;0.00;;
80193;SDS011;69515;42.072;21.504;2023-08-06T11:48:55;0.10;;;0.10;;
80193;SDS011;69515;42.072;21.504;2023-08-06T11:51:22;0.00;;;0.00;;
80193;SDS011;69515;42.072;21.504;2023-08-06T11:53:49;0.00;;;0.00;;
80193;SDS011;69515;42.072;21.504;2023-08-06T11:56:15;0.00;;;0.00;;
80193;SDS011;69515;42.072;21.504;2023-08-06T11:58:42;0.00;;;0.00;;
80193;SDS011;69515;42.072;21.504;2023-08-06T12:01:08;0.03;;;0.03;;
80193;SDS011;69515;42.072;21.504;2023-08-06T12:03:40;0.00;;;0.00;;
80193;SDS011;69515;42.072;21.504;2023-08-06T12:06:07;0.10;;;0.10;;
80193;SDS011;69515;42.072;21.504;2023-08-06T12:08:33;0.00;;;0.00;;
80193;SDS011;69515;42.072;21.504;2023-08-06T12:10:59;0.05;;;0.05;;
80193;SDS011;69515;42.072;21.504;2023-08-06T12:13:25;0.00;;;0.00;;
80193;SDS011;69515;42.072;21.504;2023-08-06T12:15:53;0.08;;;0.08;;
80193;SDS011;69515;42.072;21.504;2023-08-06T12:18:19;0.10;;;0.10;;
80193;SDS011;69515;42.072;21.504;2023-08-06T12:20:46;0.10;;;0.10;;
80193;SDS011;69515;42.072;21.504;2023-08-06T12:23:12;0.00;;;0.00;;
80193;SDS011;69515;42.072;21.504;2023-08-06T12:25:40;0.10;;;0.10;;
80193;SDS011;69515;42.072;21.504;2023-08-06T12:28:07;0.00;;;0.00;;
80193;SDS011;69515;42.072;21.504;2023-08-06T12:30:34;0.20;;;0.00;;
80193;SDS011;69515;42.072;21.504;2023-08-06T12:33:01;0.00;;;0.00;;
80193;SDS011;69515;42.072;21.504;2023-08-06T12:35:27;0.00;;;0.00;;
80193;SDS011;69515;42.072;21.504;2023-08-06T12:37:53;0.00;;;0.00;;
80193;SDS011;69515;42.072;21.504;2023-08-06T12:40:20;0.10;;;0.10;;
80193;SDS011;69515;42.072;21.504;2023-08-06T12:42:46;0.00;;;0.00;;
80193;SDS011;69515;42.072;21.504;2023-08-06T12:45:14;0.00;;;0.00;;
80193;SDS011;69515;42.072;21.504;2023-08-06T12:47:41;0.00;;;0.00;;
80193;SDS011;69515;42.072;21.504;2023-08-06T12:50:08;0.03;;;0.03;;
80193;SDS011;69515;42.072;21.504;2023-08-06T12:52:34;0.00;;;0.00;;
80193;SDS011;69515;42.072;21.504;2023-08-06T12:55:00;0.10;;;0.10;;
80193;SDS011;69515;42.072;21.504;2023-08-06T12:57:27;0.00;;;0.00;;
80193;SDS011;69515;42.072;21.504;2023-08-06T12:59:54;0.00;;;0.00;;
80193;SDS011;69515;42.072;21.504;2023-08-06T13:02:20;0.00;;;0.00;;
80193;SDS011;69515;42.072;21.504;2023-08-06T13:04:47;0.00;;;0.00;;
80193;SDS011;69515;42.072;21.504;2023-08-06T13:07:13;0.00;;;0.00;;
80193;SDS011;69515;42.072;21.504;2023-08-06T13:09:39;0.00;;;0.00;;
80193;SDS011;69515;42.072;21.504;2023-08-06T13:12:06;0.10;;;0.10;;
80193;SDS011;69515;42.072;21.504;2023-08-06T13:14:32;0.00;;;0.00;;
80193;SDS011;69515;42.072;21.504;2023-08-06T13:16:58;0.00;;;0.00;;
80193;SDS011;69515;42.072;21.504;2023-08-06T13:19:25;0.00;;;0.00;;
80193;SDS011;69515;42.072;21.504;2023-08-06T13:21:58;0.00;;;0.00;;
80193;SDS011;69515;42.072;21.504;2023-08-06T13:24:25;0.10;;;0.10;;
80193;SDS011;69515;42.072;21.504;2023-08-06T13:26:52;0.00;;;0.00;;
80193;SDS011;69515;42.072;21.504;2023-08-06T13:29:18;0.00;;;0.00;;
80193;SDS011;69515;42.072;21.504;2023-08-06T13:31:45;0.10;;;0.10;;
80193;SDS011;69515;42.072;21.504;2023-08-06T13:34:11;0.00;;;0.00;;
80193;SDS011;69515;42.072;21.504;2023-08-06T13:36:37;0.00;;;0.00;;
80193;SDS011;69515;42.072;21.504;2023-08-06T13:39:03;0.08;;;0.08;;
80193;SDS011;69515;42.072;21.504;2023-08-06T13:41:30;0.10;;;0.10;;
80193;SDS011;69515;42.072;21.504;2023-08-06T13:43:56;0.00;;;0.00;;
80193;SDS011;69515;42.072;21.504;2023-08-06T13:46:23;0.10;;;0.10;;
80193;SDS011;69515;42.072;21.504;2023-08-06T13:48:49;0.00;;;0.00;;
80193;SDS011;69515;42.072;21.504;2023-08-06T13:51:16;0.28;;;0.17;;
80193;SDS011;69515;42.072;21.504;2023-08-06T13:53:42;0.05;;;0.05;;
80193;SDS011;69515;42.072;21.504;2023-08-06T13:56:08;0.00;;;0.00;;
80193;SDS011;69515;42.072;21.504;2023-08-06T13:58:36;0.00;;;0.00;;
80193;SDS011;69515;42.072;21.504;2023-08-06T14:01:02;0.00;;;0.00;;
80193;SDS011;69515;42.072;21.504;2023-08-06T14:03:28;0.00;;;0.00;;
80193;SDS011;69515;42.072;21.504;2023-08-06T14:05:55;0.00;;;0.00;;
80193;SDS011;69515;42.072;21.504;2023-08-06T14:08:23;0.00;;;0.00;;
80193;SDS011;69515;42.072;21.504;2023-08-06T14:10:51;0.00;;;0.00;;
80193;SDS011;69515;42.072;21.504;2023-08-06T14:13:17;0.10;;;0.10;;
80193;SDS011;69515;42.072;21.504;2023-08-06T14:15:43;0.00;;;0.00;;
80193;SDS011;69515;42.072;21.504;2023-08-06T14:18:12;0.00;;;0.00;;
80193;SDS011;69515;42.072;21.504;2023-08-06T14:20:39;0.00;;;0.00;;
80193;SDS011;69515;42.072;21.504;2023-08-06T14:23:05;0.00;;;0.00;;
80193;SDS011;69515;42.072;21.504;2023-08-06T14:25:32;0.00;;;0.00;;
80193;SDS011;69515;42.072;21.504;2023-08-06T14:27:58;0.00;;;0.00;;
80193;SDS011;69515;42.072;21.504;2023-08-06T14:30:24;0.00;;;0.00;;
80193;SDS011;69515;42.072;21.504;2023-08-06T14:32:50;0.00;;;0.00;;
80193;SDS011;69515;42.072;21.504;2023-08-06T14:35:17;0.03;;;0.03;;
80193;SDS011;69515;42.072;21.504;2023-08-06T14:37:43;0.10;;;0.10;;
80193;SDS011;69515;42.072;21.504;2023-08-06T14:40:10;0.00;;;0.00;;